Neenah, Wisconsin
Current Conditions -  °F | °C
As of 9:45 PM on Thursday 27 Nov 2014 (Local Time) from KATW Reporting Station
Clear Clear  
Wind Chill: -10°   Ceiling: Unl
Heat Index:   Visibility: 10mi
Dew Point:   Wind: 8mph
Humidity: 85%   Direction: 290°WNW
Pressure: 30.34"   Gusts: NA
Location:  44.19°N, 88.46°W
Report Text: KATW 280345Z 29007KT 10SM SKC M16/M18 A3034
Loading
Personal Weather Stations






























Interactive Weather Map New forecast layout! Learn more

10-Day Weather Forecast

Advertisements
Track Severe Weather on mobile